sensor_id;sensor_type;location;lat;lon;timestamp;pressure;altitude;pressure_sealevel;temperature;humidity
68380;BME280;57711;53.196;19.638;2023-04-20T00:01:55;100619.91;;;10.33;64.83
68380;BME280;57711;53.196;19.638;2023-04-20T00:04:23;100619.69;;;10.31;64.74
68380;BME280;57711;53.196;19.638;2023-04-20T00:06:50;100624.10;;;10.30;64.80
68380;BME280;57711;53.196;19.638;2023-04-20T00:09:18;100624.70;;;10.30;64.83
68380;BME280;57711;53.196;19.638;2023-04-20T00:11:45;100624.11;;;10.28;64.82
68380;BME280;57711;53.196;19.638;2023-04-20T00:14:13;100618.38;;;10.28;64.80
68380;BME280;57711;53.196;19.638;2023-04-20T00:16:41;100618.71;;;10.28;64.72
68380;BME280;57711;53.196;19.638;2023-04-20T00:19:08;100616.10;;;10.27;64.79
68380;BME280;57711;53.196;19.638;2023-04-20T00:21:35;100616.89;;;10.28;64.84
68380;BME280;57711;53.196;19.638;2023-04-20T00:24:03;100616.36;;;10.28;65.07
68380;BME280;57711;53.196;19.638;2023-04-20T00:26:30;100618.44;;;10.29;64.92
68380;BME280;57711;53.196;19.638;2023-04-20T00:28:57;100617.73;;;10.29;64.97
68380;BME280;57711;53.196;19.638;2023-04-20T00:31:25;100619.27;;;10.28;64.83
68380;BME280;57711;53.196;19.638;2023-04-20T00:33:52;100622.44;;;10.27;64.88
68380;BME280;57711;53.196;19.638;2023-04-20T00:36:19;100625.63;;;10.25;64.81
68380;BME280;57711;53.196;19.638;2023-04-20T00:38:47;100620.52;;;10.23;64.93
68380;BME280;57711;53.196;19.638;2023-04-20T00:41:14;100613.13;;;10.20;64.94
68380;BME280;57711;53.196;19.638;2023-04-20T00:43:52;100607.92;;;10.18;64.94
68380;BME280;57711;53.196;19.638;2023-04-20T00:46:20;100610.27;;;10.16;64.96
68380;BME280;57711;53.196;19.638;2023-04-20T00:48:52;100611.05;;;10.15;64.97
68380;BME280;57711;53.196;19.638;2023-04-20T00:51:20;100611.39;;;10.15;65.00
68380;BME280;57711;53.196;19.638;2023-04-20T00:53:48;100608.60;;;10.16;64.90
68380;BME280;57711;53.196;19.638;2023-04-20T00:56:15;100608.28;;;10.18;64.73
68380;BME280;57711;53.196;19.638;2023-04-20T00:58:42;100607.70;;;10.18;64.90
68380;BME280;57711;53.196;19.638;2023-04-20T01:01:11;100609.69;;;10.18;65.04
68380;BME280;57711;53.196;19.638;2023-04-20T01:03:38;100609.28;;;10.19;65.07
68380;BME280;57711;53.196;19.638;2023-04-20T01:06:07;100608.95;;;10.19;64.77
68380;BME280;57711;53.196;19.638;2023-04-20T01:08:34;100606.30;;;10.18;65.01
68380;BME280;57711;53.196;19.638;2023-04-20T01:11:03;100605.60;;;10.16;64.99
68380;BME280;57711;53.196;19.638;2023-04-20T01:13:30;100604.66;;;10.14;65.12
68380;BME280;57711;53.196;19.638;2023-04-20T01:15:58;100602.33;;;10.11;64.95
68380;BME280;57711;53.196;19.638;2023-04-20T01:18:26;100596.88;;;10.12;64.92
68380;BME280;57711;53.196;19.638;2023-04-20T01:20:53;100597.71;;;10.12;65.00
68380;BME280;57711;53.196;19.638;2023-04-20T01:23:20;100592.30;;;10.13;64.97
68380;BME280;57711;53.196;19.638;2023-04-20T01:25:47;100589.96;;;10.15;65.01
68380;BME280;57711;53.196;19.638;2023-04-20T01:28:14;100592.83;;;10.17;64.95
68380;BME280;57711;53.196;19.638;2023-04-20T01:30:42;100595.77;;;10.19;65.02
68380;BME280;57711;53.196;19.638;2023-04-20T01:33:09;100598.08;;;10.19;64.93
68380;BME280;57711;53.196;19.638;2023-04-20T01:35:36;100596.92;;;10.18;64.99
68380;BME280;57711;53.196;19.638;2023-04-20T01:38:03;100595.33;;;10.18;64.96
68380;BME280;57711;53.196;19.638;2023-04-20T01:40:30;100596.05;;;10.15;65.17
68380;BME280;57711;53.196;19.638;2023-04-20T01:42:58;100598.02;;;10.13;65.03
68380;BME280;57711;53.196;19.638;2023-04-20T01:45:25;100600.34;;;10.12;64.99
68380;BME280;57711;53.196;19.638;2023-04-20T01:47:52;100598.83;;;10.10;65.06
68380;BME280;57711;53.196;19.638;2023-04-20T01:50:19;100597.41;;;10.10;65.02
68380;BME280;57711;53.196;19.638;2023-04-20T01:52:49;100596.65;;;10.08;65.10
68380;BME280;57711;53.196;19.638;2023-04-20T01:55:17;100596.39;;;10.07;64.96
68380;BME280;57711;53.196;19.638;2023-04-20T01:57:46;100592.04;;;10.07;65.14
68380;BME280;57711;53.196;19.638;2023-04-20T02:00:13;100591.48;;;10.05;65.04
68380;BME280;57711;53.196;19.638;2023-04-20T02:02:40;100597.57;;;10.04;65.22
68380;BME280;57711;53.196;19.638;2023-04-20T02:05:08;100595.74;;;10.01;65.08
68380;BME280;57711;53.196;19.638;2023-04-20T02:07:35;100596.73;;;9.98;65.14
68380;BME280;57711;53.196;19.638;2023-04-20T02:10:03;100602.58;;;9.95;64.94
68380;BME280;57711;53.196;19.638;2023-04-20T02:12:31;100597.53;;;9.91;65.13
68380;BME280;57711;53.196;19.638;2023-04-20T02:14:58;100600.73;;;9.87;65.08
68380;BME280;57711;53.196;19.638;2023-04-20T02:17:25;100600.32;;;9.83;65.17
68380;BME280;57711;53.196;19.638;2023-04-20T02:19:52;100602.43;;;9.81;65.14
68380;BME280;57711;53.196;19.638;2023-04-20T02:22:19;100601.45;;;9.80;65.03
68380;BME280;57711;53.196;19.638;2023-04-20T02:24:46;100598.35;;;9.78;65.11
68380;BME280;57711;53.196;19.638;2023-04-20T02:27:14;100601.20;;;9.76;65.09
68380;BME280;57711;53.196;19.638;2023-04-20T02:29:41;100598.98;;;9.75;65.15
68380;BME280;57711;53.196;19.638;2023-04-20T02:32:08;100599.58;;;9.74;65.00
68380;BME280;57711;53.196;19.638;2023-04-20T02:34:35;100598.80;;;9.73;64.98
68380;BME280;57711;53.196;19.638;2023-04-20T02:37:02;100597.93;;;9.70;65.10
68380;BME280;57711;53.196;19.638;2023-04-20T02:39:30;100594.09;;;9.66;65.05
68380;BME280;57711;53.196;19.638;2023-04-20T02:41:57;100600.02;;;9.64;65.05
68380;BME280;57711;53.196;19.638;2023-04-20T02:44:24;100600.48;;;9.62;65.17
68380;BME280;57711;53.196;19.638;2023-04-20T02:46:51;100599.31;;;9.59;65.06
68380;BME280;57711;53.196;19.638;2023-04-20T02:49:20;100594.00;;;9.56;65.15
68380;BME280;57711;53.196;19.638;2023-04-20T02:51:47;100596.80;;;9.52;65.07
68380;BME280;57711;53.196;19.638;2023-04-20T02:54:14;100598.45;;;9.50;65.07
68380;BME280;57711;53.196;19.638;2023-04-20T02:56:42;100596.48;;;9.52;64.99
68380;BME280;57711;53.196;19.638;2023-04-20T02:59:09;100602.45;;;9.52;65.07
68380;BME280;57711;53.196;19.638;2023-04-20T03:01:41;100600.98;;;9.52;65.07
68380;BME280;57711;53.196;19.638;2023-04-20T03:04:12;100603.96;;;9.51;64.78
68380;BME280;57711;53.196;19.638;2023-04-20T03:06:46;100606.70;;;9.50;64.97
68380;BME280;57711;53.196;19.638;2023-04-20T03:09:20;100605.55;;;9.49;65.08
68380;BME280;57711;53.196;19.638;2023-04-20T03:11:53;100607.39;;;9.46;65.11
68380;BME280;57711;53.196;19.638;2023-04-20T03:14:39;100610.78;;;9.42;65.08
68380;BME280;57711;53.196;19.638;2023-04-20T03:17:07;100614.66;;;9.36;64.99
68380;BME280;57711;53.196;19.638;2023-04-20T03:19:34;100616.30;;;9.34;65.09
68380;BME280;57711;53.196;19.638;2023-04-20T03:22:02;100622.47;;;9.33;65.02
68380;BME280;57711;53.196;19.638;2023-04-20T03:24:30;100620.50;;;9.33;65.08
68380;BME280;57711;53.196;19.638;2023-04-20T03:26:59;100622.68;;;9.33;65.13
68380;BME280;57711;53.196;19.638;2023-04-20T03:29:35;100627.27;;;9.32;65.04
68380;BME280;57711;53.196;19.638;2023-04-20T03:32:02;100630.88;;;9.32;64.93
68380;BME280;57711;53.196;19.638;2023-04-20T03:34:29;100633.89;;;9.33;65.19
68380;BME280;57711;53.196;19.638;2023-04-20T03:36:57;100636.64;;;9.32;65.07
68380;BME280;57711;53.196;19.638;2023-04-20T03:39:25;100634.02;;;9.31;65.18
68380;BME280;57711;53.196;19.638;2023-04-20T03:41:52;100635.36;;;9.30;65.12
68380;BME280;57711;53.196;19.638;2023-04-20T03:44:19;100638.30;;;9.29;65.21
68380;BME280;57711;53.196;19.638;2023-04-20T03:46:46;100639.20;;;9.27;65.19
68380;BME280;57711;53.196;19.638;2023-04-20T03:49:13;100641.77;;;9.24;65.09
68380;BME280;57711;53.196;19.638;2023-04-20T03:51:41;100645.23;;;9.21;65.30
68380;BME280;57711;53.196;19.638;2023-04-20T03:54:08;100648.84;;;9.21;65.14
68380;BME280;57711;53.196;19.638;2023-04-20T03:56:35;100650.21;;;9.22;65.23
68380;BME280;57711;53.196;19.638;2023-04-20T03:59:03;100651.96;;;9.23;65.22
68380;BME280;57711;53.196;19.638;2023-04-20T04:01:30;100650.77;;;9.22;65.17
68380;BME280;57711;53.196;19.638;2023-04-20T04:03:58;100655.05;;;9.23;65.15
68380;BME280;57711;53.196;19.638;2023-04-20T04:06:25;100655.56;;;9.23;65.26
68380;BME280;57711;53.196;19.638;2023-04-20T04:08:53;100659.81;;;9.24;65.24
68380;BME280;57711;53.196;19.638;2023-04-20T04:11:22;100658.71;;;9.24;65.23
68380;BME280;57711;53.196;19.638;2023-04-20T04:13:51;100655.08;;;9.25;65.25
68380;BME280;57711;53.196;19.638;2023-04-20T04:16:18;100659.88;;;9.23;65.34
68380;BME280;57711;53.196;19.638;2023-04-20T04:18:46;100657.21;;;9.23;65.29
68380;BME280;57711;53.196;19.638;2023-04-20T04:21:13;100659.13;;;9.23;65.25
68380;BME280;57711;53.196;19.638;2023-04-20T04:23:43;100661.36;;;9.25;65.45
68380;BME280;57711;53.196;19.638;2023-04-20T04:26:16;100662.48;;;9.27;65.21
68380;BME280;57711;53.196;19.638;2023-04-20T04:28:44;100667.20;;;9.29;65.15
68380;BME280;57711;53.196;19.638;2023-04-20T04:31:19;100670.29;;;9.31;65.30
68380;BME280;57711;53.196;19.638;2023-04-20T04:33:47;100672.64;;;9.33;65.16
68380;BME280;57711;53.196;19.638;2023-04-20T04:36:35;100671.20;;;9.36;65.39
68380;BME280;57711;53.196;19.638;2023-04-20T04:39:04;100671.16;;;9.38;65.23
68380;BME280;57711;53.196;19.638;2023-04-20T04:41:31;100674.83;;;9.40;65.37
68380;BME280;57711;53.196;19.638;2023-04-20T04:44:10;100673.73;;;9.42;65.49
68380;BME280;57711;53.196;19.638;2023-04-20T04:46:38;100678.26;;;9.44;65.31
68380;BME280;57711;53.196;19.638;2023-04-20T04:49:05;100677.16;;;9.45;65.40
68380;BME280;57711;53.196;19.638;2023-04-20T04:51:32;100683.11;;;9.45;65.39
68380;BME280;57711;53.196;19.638;2023-04-20T04:53:59;100686.70;;;9.45;65.39
68380;BME280;57711;53.196;19.638;2023-04-20T04:56:26;100683.08;;;9.43;65.40
68380;BME280;57711;53.196;19.638;2023-04-20T04:58:54;100685.54;;;9.44;65.36
68380;BME280;57711;53.196;19.638;2023-04-20T05:01:21;100683.95;;;9.46;65.43
68380;BME280;57711;53.196;19.638;2023-04-20T05:03:48;100684.63;;;9.46;65.31
68380;BME280;57711;53.196;19.638;2023-04-20T05:06:16;100689.93;;;9.50;65.44
68380;BME280;57711;53.196;19.638;2023-04-20T05:08:43;100688.89;;;9.54;65.43
68380;BME280;57711;53.196;19.638;2023-04-20T05:11:10;100690.35;;;9.59;65.35
68380;BME280;57711;53.196;19.638;2023-04-20T05:13:37;100688.09;;;9.62;65.46
68380;BME280;57711;53.196;19.638;2023-04-20T05:16:04;100689.80;;;9.66;65.52
68380;BME280;57711;53.196;19.638;2023-04-20T05:18:32;100694.19;;;9.70;65.61
68380;BME280;57711;53.196;19.638;2023-04-20T05:21:00;100696.73;;;9.74;65.62
68380;BME280;57711;53.196;19.638;2023-04-20T05:23:27;100694.73;;;9.79;65.47
68380;BME280;57711;53.196;19.638;2023-04-20T05:25:54;100694.16;;;9.84;65.76
68380;BME280;57711;53.196;19.638;2023-04-20T05:28:21;100693.34;;;9.90;65.74
68380;BME280;57711;53.196;19.638;2023-04-20T05:30:49;100693.62;;;9.97;65.64
68380;BME280;57711;53.196;19.638;2023-04-20T05:33:16;100697.41;;;10.06;65.58
68380;BME280;57711;53.196;19.638;2023-04-20T05:35:43;100702.70;;;10.15;65.62
68380;BME280;57711;53.196;19.638;2023-04-20T05:38:10;100707.72;;;10.22;65.41
68380;BME280;57711;53.196;19.638;2023-04-20T05:40:37;100711.95;;;10.28;65.26
68380;BME280;57711;53.196;19.638;2023-04-20T05:43:04;100708.50;;;10.35;65.49
68380;BME280;57711;53.196;19.638;2023-04-20T05:45:32;100711.25;;;10.44;65.59
68380;BME280;57711;53.196;19.638;2023-04-20T05:48:00;100709.10;;;10.52;65.38
68380;BME280;57711;53.196;19.638;2023-04-20T05:50:27;100712.76;;;10.58;65.44
68380;BME280;57711;53.196;19.638;2023-04-20T05:52:54;100714.11;;;10.64;65.57
68380;BME280;57711;53.196;19.638;2023-04-20T05:55:22;100713.74;;;10.66;65.40
68380;BME280;57711;53.196;19.638;2023-04-20T05:57:50;100713.52;;;10.67;65.25
68380;BME280;57711;53.196;19.638;2023-04-20T06:00:18;100717.02;;;10.66;65.23
68380;BME280;57711;53.196;19.638;2023-04-20T06:02:46;100719.85;;;10.65;65.19
68380;BME280;57711;53.196;19.638;2023-04-20T06:05:13;100719.64;;;10.65;65.23
68380;BME280;57711;53.196;19.638;2023-04-20T06:07:41;100727.39;;;10.65;65.15
68380;BME280;57711;53.196;19.638;2023-04-20T06:10:08;100730.58;;;10.66;65.04
68380;BME280;57711;53.196;19.638;2023-04-20T06:12:36;100731.14;;;10.68;65.19
68380;BME280;57711;53.196;19.638;2023-04-20T06:15:03;100734.73;;;10.71;65.07
68380;BME280;57711;53.196;19.638;2023-04-20T06:17:35;100734.07;;;10.72;65.18
68380;BME280;57711;53.196;19.638;2023-04-20T06:20:03;100734.62;;;10.74;65.28
68380;BME280;57711;53.196;19.638;2023-04-20T06:22:32;100735.23;;;10.75;65.12
68380;BME280;57711;53.196;19.638;2023-04-20T06:24:59;100733.61;;;10.75;65.23
68380;BME280;57711;53.196;19.638;2023-04-20T06:27:27;100737.92;;;10.76;65.17
68380;BME280;57711;53.196;19.638;2023-04-20T06:29:54;100737.48;;;10.77;65.34
68380;BME280;57711;53.196;19.638;2023-04-20T06:32:21;100741.77;;;10.77;65.30
68380;BME280;57711;53.196;19.638;2023-04-20T06:34:48;100741.30;;;10.79;65.25
68380;BME280;57711;53.196;19.638;2023-04-20T06:37:16;100746.04;;;10.81;65.36
68380;BME280;57711;53.196;19.638;2023-04-20T06:39:44;100748.13;;;10.84;65.22
68380;BME280;57711;53.196;19.638;2023-04-20T06:42:11;100747.02;;;10.88;65.05
68380;BME280;57711;53.196;19.638;2023-04-20T06:44:39;100747.16;;;10.93;65.34
68380;BME280;57711;53.196;19.638;2023-04-20T06:47:07;100748.12;;;11.01;65.18
68380;BME280;57711;53.196;19.638;2023-04-20T06:49:34;100750.86;;;11.10;65.41
68380;BME280;57711;53.196;19.638;2023-04-20T06:52:03;100750.48;;;11.19;65.50
68380;BME280;57711;53.196;19.638;2023-04-20T06:54:31;100745.91;;;11.28;65.26
68380;BME280;57711;53.196;19.638;2023-04-20T06:56:58;100749.70;;;11.39;65.34
68380;BME280;57711;53.196;19.638;2023-04-20T06:59:26;100750.73;;;11.48;65.52
68380;BME280;57711;53.196;19.638;2023-04-20T07:01:53;100751.32;;;11.53;65.20
68380;BME280;57711;53.196;19.638;2023-04-20T07:04:20;100754.56;;;11.58;65.19
68380;BME280;57711;53.196;19.638;2023-04-20T07:06:48;100757.08;;;11.63;65.29
68380;BME280;57711;53.196;19.638;2023-04-20T07:09:20;100752.45;;;11.68;65.15
68380;BME280;57711;53.196;19.638;2023-04-20T07:11:48;100750.89;;;11.74;65.20
68380;BME280;57711;53.196;19.638;2023-04-20T07:14:16;100748.44;;;11.79;65.33
68380;BME280;57711;53.196;19.638;2023-04-20T07:16:43;100754.43;;;11.85;65.04
68380;BME280;57711;53.196;19.638;2023-04-20T07:19:10;100756.70;;;11.90;65.43
68380;BME280;57711;53.196;19.638;2023-04-20T07:21:37;100755.41;;;11.99;65.20
68380;BME280;57711;53.196;19.638;2023-04-20T07:24:04;100756.36;;;12.11;65.43
68380;BME280;57711;53.196;19.638;2023-04-20T07:26:32;100760.23;;;12.31;65.41
68380;BME280;57711;53.196;19.638;2023-04-20T07:28:59;100757.65;;;12.48;65.16
68380;BME280;57711;53.196;19.638;2023-04-20T07:31:26;100757.95;;;12.65;65.13
68380;BME280;57711;53.196;19.638;2023-04-20T07:33:53;100756.65;;;12.85;65.31
68380;BME280;57711;53.196;19.638;2023-04-20T07:36:21;100753.13;;;13.06;65.22
68380;BME280;57711;53.196;19.638;2023-04-20T07:38:48;100744.07;;;13.27;65.33
68380;BME280;57711;53.196;19.638;2023-04-20T07:41:15;100747.69;;;13.47;65.19
68380;BME280;57711;53.196;19.638;2023-04-20T07:43:43;100751.40;;;13.62;64.94
68380;BME280;57711;53.196;19.638;2023-04-20T07:46:18;100755.54;;;13.72;65.04
68380;BME280;57711;53.196;19.638;2023-04-20T07:48:46;100754.94;;;13.81;64.87
68380;BME280;57711;53.196;19.638;2023-04-20T07:51:13;100754.40;;;13.88;64.66
68380;BME280;57711;53.196;19.638;2023-04-20T07:53:41;100756.79;;;13.99;64.99
68380;BME280;57711;53.196;19.638;2023-04-20T07:56:08;100755.91;;;14.14;65.00
68380;BME280;57711;53.196;19.638;2023-04-20T07:58:35;100759.65;;;14.30;64.82
68380;BME280;57711;53.196;19.638;2023-04-20T08:01:05;100754.10;;;14.42;64.88
68380;BME280;57711;53.196;19.638;2023-04-20T08:03:33;100755.33;;;14.54;64.78
68380;BME280;57711;53.196;19.638;2023-04-20T08:06:01;100754.27;;;14.63;64.70
68380;BME280;57711;53.196;19.638;2023-04-20T08:08:29;100753.54;;;14.68;64.43
68380;BME280;57711;53.196;19.638;2023-04-20T08:10:57;100759.34;;;14.71;64.54
68380;BME280;57711;53.196;19.638;2023-04-20T08:13:27;100755.90;;;14.78;64.59
68380;BME280;57711;53.196;19.638;2023-04-20T08:15:55;100761.23;;;14.86;64.66
68380;BME280;57711;53.196;19.638;2023-04-20T08:18:22;100764.41;;;14.91;64.63
68380;BME280;57711;53.196;19.638;2023-04-20T08:20:49;100761.75;;;14.96;64.37
68380;BME280;57711;53.196;19.638;2023-04-20T08:23:17;100763.59;;;15.01;64.42
68380;BME280;57711;53.196;19.638;2023-04-20T08:25:44;100762.24;;;15.09;64.47
68380;BME280;57711;53.196;19.638;2023-04-20T08:28:11;100760.64;;;15.20;64.49
68380;BME280;57711;53.196;19.638;2023-04-20T08:30:58;100765.07;;;15.32;64.27
68380;BME280;57711;53.196;19.638;2023-04-20T08:33:25;100770.75;;;15.37;64.12
68380;BME280;57711;53.196;19.638;2023-04-20T08:35:53;100771.31;;;15.39;63.90
68380;BME280;57711;53.196;19.638;2023-04-20T08:38:20;100773.84;;;15.39;63.92
68380;BME280;57711;53.196;19.638;2023-04-20T08:40:59;100776.44;;;15.38;63.88
68380;BME280;57711;53.196;19.638;2023-04-20T08:43:26;100773.74;;;15.38;63.84
68380;BME280;57711;53.196;19.638;2023-04-20T08:45:57;100775.47;;;15.37;63.71
68380;BME280;57711;53.196;19.638;2023-04-20T08:48:29;100776.10;;;15.42;63.79
68380;BME280;57711;53.196;19.638;2023-04-20T08:51:01;100775.27;;;15.57;63.99
68380;BME280;57711;53.196;19.638;2023-04-20T08:53:28;100772.84;;;15.77;64.02
68380;BME280;57711;53.196;19.638;2023-04-20T08:55:56;100770.92;;;15.98;63.90
68380;BME280;57711;53.196;19.638;2023-04-20T08:58:27;100770.44;;;16.16;63.68
68380;BME280;57711;53.196;19.638;2023-04-20T09:00:55;100768.31;;;16.33;63.65
68380;BME280;57711;53.196;19.638;2023-04-20T09:03:33;100767.38;;;16.49;63.43
68380;BME280;57711;53.196;19.638;2023-04-20T09:06:01;100762.52;;;16.66;63.36
68380;BME280;57711;53.196;19.638;2023-04-20T09:08:37;100763.08;;;16.81;63.42
68380;BME280;57711;53.196;19.638;2023-04-20T09:11:05;100764.14;;;16.98;63.23
68380;BME280;57711;53.196;19.638;2023-04-20T09:13:32;100761.52;;;17.16;63.31
68380;BME280;57711;53.196;19.638;2023-04-20T09:16:10;100759.11;;;17.31;63.29
68380;BME280;57711;53.196;19.638;2023-04-20T09:18:37;100758.52;;;17.46;63.19
68380;BME280;57711;53.196;19.638;2023-04-20T09:21:09;100757.94;;;17.59;62.96
68380;BME280;57711;53.196;19.638;2023-04-20T09:23:36;100756.31;;;17.70;63.02
68380;BME280;57711;53.196;19.638;2023-04-20T09:26:03;100758.46;;;17.83;62.89
68380;BME280;57711;53.196;19.638;2023-04-20T09:28:37;100755.63;;;17.97;62.87
68380;BME280;57711;53.196;19.638;2023-04-20T09:31:16;100753.14;;;18.11;62.81
68380;BME280;57711;53.196;19.638;2023-04-20T09:33:44;100757.71;;;18.26;62.81
68380;BME280;57711;53.196;19.638;2023-04-20T09:36:11;100752.63;;;18.40;62.60
68380;BME280;57711;53.196;19.638;2023-04-20T09:38:39;100750.88;;;18.51;62.45
68380;BME280;57711;53.196;19.638;2023-04-20T09:41:07;100748.93;;;18.63;62.52
68380;BME280;57711;53.196;19.638;2023-04-20T09:43:34;100748.73;;;18.72;62.38
68380;BME280;57711;53.196;19.638;2023-04-20T09:46:02;100748.36;;;18.82;62.24
68380;BME280;57711;53.196;19.638;2023-04-20T09:48:29;100752.39;;;18.90;62.14
68380;BME280;57711;53.196;19.638;2023-04-20T09:51:01;100756.98;;;19.01;62.12
68380;BME280;57711;53.196;19.638;2023-04-20T09:53:29;100752.45;;;19.10;61.67
68380;BME280;57711;53.196;19.638;2023-04-20T09:55:57;100758.46;;;19.12;61.31
68380;BME280;57711;53.196;19.638;2023-04-20T09:58:25;100748.10;;;19.12;61.42
68380;BME280;57711;53.196;19.638;2023-04-20T10:00:53;100748.61;;;19.13;61.29
68380;BME280;57711;53.196;19.638;2023-04-20T10:03:20;100741.27;;;19.18;61.29
68380;BME280;57711;53.196;19.638;2023-04-20T10:05:48;100739.66;;;19.27;61.33
68380;BME280;57711;53.196;19.638;2023-04-20T10:08:18;100734.24;;;19.35;61.17
68380;BME280;57711;53.196;19.638;2023-04-20T10:10:48;100736.13;;;19.39;61.05
68380;BME280;57711;53.196;19.638;2023-04-20T10:13:16;100741.78;;;19.43;60.84
68380;BME280;57711;53.196;19.638;2023-04-20T10:15:47;100742.15;;;19.47;60.77
68380;BME280;57711;53.196;19.638;2023-04-20T10:18:19;100741.30;;;19.53;60.64
68380;BME280;57711;53.196;19.638;2023-04-20T10:20:51;100739.36;;;19.58;60.55
68380;BME280;57711;53.196;19.638;2023-04-20T10:23:29;100740.93;;;19.63;60.23
68380;BME280;57711;53.196;19.638;2023-04-20T10:25:58;100735.43;;;19.67;60.36
68380;BME280;57711;53.196;19.638;2023-04-20T10:28:37;100726.52;;;19.72;60.38
68380;BME280;57711;53.196;19.638;2023-04-20T10:31:08;100732.23;;;19.80;60.32
68380;BME280;57711;53.196;19.638;2023-04-20T10:36:28;100722.23;;;20.03;60.13
68380;BME280;57711;53.196;19.638;2023-04-20T10:38:59;100721.14;;;20.15;60.01
68380;BME280;57711;53.196;19.638;2023-04-20T10:41:30;100730.35;;;20.28;59.87
68380;BME280;57711;53.196;19.638;2023-04-20T10:44:07;100727.03;;;20.33;59.43
68380;BME280;57711;53.196;19.638;2023-04-20T10:46:35;100723.35;;;20.27;59.27
68380;BME280;57711;53.196;19.638;2023-04-20T10:49:02;100727.96;;;20.24;59.12
68380;BME280;57711;53.196;19.638;2023-04-20T10:51:29;100722.29;;;20.28;59.27
68380;BME280;57711;53.196;19.638;2023-04-20T10:54:05;100718.61;;;20.31;59.02
68380;BME280;57711;53.196;19.638;2023-04-20T10:56:37;100718.88;;;20.35;58.98
68380;BME280;57711;53.196;19.638;2023-04-20T10:59:05;100719.46;;;20.34;58.64
68380;BME280;57711;53.196;19.638;2023-04-20T11:01:34;100714.20;;;20.33;58.59
68380;BME280;57711;53.196;19.638;2023-04-20T11:04:01;100707.17;;;20.29;58.37
68380;BME280;57711;53.196;19.638;2023-04-20T11:06:30;100710.95;;;20.20;58.11
68380;BME280;57711;53.196;19.638;2023-04-20T11:08:58;100722.96;;;20.14;58.11
68380;BME280;57711;53.196;19.638;2023-04-20T11:11:26;100714.63;;;20.10;58.01
68380;BME280;57711;53.196;19.638;2023-04-20T11:14:10;100711.46;;;20.01;57.58
68380;BME280;57711;53.196;19.638;2023-04-20T11:16:38;100715.46;;;19.79;57.35
68380;BME280;57711;53.196;19.638;2023-04-20T11:19:08;100714.92;;;19.60;57.31
68380;BME280;57711;53.196;19.638;2023-04-20T11:21:39;100710.13;;;19.45;57.20
68380;BME280;57711;53.196;19.638;2023-04-20T11:24:24;100718.62;;;19.31;57.15
68380;BME280;57711;53.196;19.638;2023-04-20T11:26:52;100710.54;;;19.31;57.36
68380;BME280;57711;53.196;19.638;2023-04-20T11:29:30;100708.44;;;19.41;57.11
68380;BME280;57711;53.196;19.638;2023-04-20T11:32:00;100704.12;;;19.49;57.15
68380;BME280;57711;53.196;19.638;2023-04-20T11:34:28;100703.62;;;19.61;57.17
68380;BME280;57711;53.196;19.638;2023-04-20T11:37:02;100701.59;;;19.66;56.84
68380;BME280;57711;53.196;19.638;2023-04-20T11:39:30;100708.66;;;19.59;56.35
68380;BME280;57711;53.196;19.638;2023-04-20T11:41:58;100708.70;;;19.46;56.38
68380;BME280;57711;53.196;19.638;2023-04-20T11:44:25;100710.40;;;19.37;56.21
68380;BME280;57711;53.196;19.638;2023-04-20T11:46:53;100706.54;;;19.34;56.24
68380;BME280;57711;53.196;19.638;2023-04-20T11:49:24;100705.58;;;19.39;56.12
68380;BME280;57711;53.196;19.638;2023-04-20T11:51:52;100705.55;;;19.47;56.09
68380;BME280;57711;53.196;19.638;2023-04-20T11:54:19;100708.38;;;19.54;56.02
68380;BME280;57711;53.196;19.638;2023-04-20T11:56:47;100705.74;;;19.66;56.00
68380;BME280;57711;53.196;19.638;2023-04-20T11:59:14;100702.00;;;19.84;56.02
68380;BME280;57711;53.196;19.638;2023-04-20T12:01:46;100702.73;;;20.02;55.98
68380;BME280;57711;53.196;19.638;2023-04-20T12:04:14;100700.71;;;20.07;55.70
68380;BME280;57711;53.196;19.638;2023-04-20T12:06:42;100697.01;;;20.06;55.43
68380;BME280;57711;53.196;19.638;2023-04-20T12:09:10;100701.02;;;20.08;55.44
68380;BME280;57711;53.196;19.638;2023-04-20T12:11:37;100698.17;;;20.08;55.18
68380;BME280;57711;53.196;19.638;2023-04-20T12:14:04;100693.61;;;20.08;55.29
68380;BME280;57711;53.196;19.638;2023-04-20T12:16:31;100695.36;;;20.04;55.12
68380;BME280;57711;53.196;19.638;2023-04-20T12:18:58;100694.31;;;19.96;54.97
68380;BME280;57711;53.196;19.638;2023-04-20T12:21:25;100696.83;;;19.86;54.90
68380;BME280;57711;53.196;19.638;2023-04-20T12:23:53;100697.54;;;19.80;54.83
68380;BME280;57711;53.196;19.638;2023-04-20T12:26:20;100694.02;;;19.77;54.65
68380;BME280;57711;53.196;19.638;2023-04-20T12:29:00;100692.25;;;19.72;54.36
68380;BME280;57711;53.196;19.638;2023-04-20T12:31:28;100694.70;;;19.70;54.47
68380;BME280;57711;53.196;19.638;2023-04-20T12:33:55;100689.06;;;19.71;54.53
68380;BME280;57711;53.196;19.638;2023-04-20T12:36:22;100685.54;;;19.74;54.30
68380;BME280;57711;53.196;19.638;2023-04-20T12:38:50;100688.50;;;19.72;54.29
68380;BME280;57711;53.196;19.638;2023-04-20T12:41:18;100684.13;;;19.66;54.12
68380;BME280;57711;53.196;19.638;2023-04-20T12:43:45;100688.86;;;19.57;54.06
68380;BME280;57711;53.196;19.638;2023-04-20T12:46:13;100688.89;;;19.46;54.01
68380;BME280;57711;53.196;19.638;2023-04-20T12:48:40;100687.06;;;19.34;53.87
68380;BME280;57711;53.196;19.638;2023-04-20T12:51:07;100686.90;;;19.22;53.85
68380;BME280;57711;53.196;19.638;2023-04-20T12:53:34;100683.46;;;19.12;53.87